createdAt,value
2019-04-10T00:03:31.795Z,81.20
2019-04-10T00:07:31.176Z,82.90
2019-04-10T00:11:36.875Z,82.60
2019-04-10T00:15:42.354Z,83.10
2019-04-10T00:19:48.053Z,82.50
2019-04-10T00:23:52.619Z,83.30
2019-04-10T00:27:57.211Z,83.70
2019-04-10T00:32:02.363Z,83.70
2019-04-10T00:36:07.963Z,83.40
2019-04-10T00:40:12.912Z,84.10
2019-04-10T00:44:19.452Z,85.30
2019-04-10T00:48:24.270Z,85.40
2019-04-10T00:52:28.874Z,85.90
2019-04-10T00:56:33.500Z,85.80
2019-04-10T01:00:39.235Z,86.30
2019-04-10T01:04:44.664Z,87.20
2019-04-10T01:08:50.948Z,86.30
2019-04-10T01:12:56.559Z,87.40
2019-04-10T01:17:02.154Z,87.30
2019-04-10T01:21:06.927Z,87.60
2019-04-10T01:25:12.692Z,88.60
2019-04-10T01:29:17.598Z,88.80
2019-04-10T01:33:22.807Z,89.30
2019-04-10T01:37:29.059Z,89.30
2019-04-10T01:41:34.242Z,88.90
2019-04-10T01:45:39.982Z,90.00
2019-04-10T01:49:46.878Z,88.80
2019-04-10T01:53:52.353Z,89.90
2019-04-10T01:57:58.883Z,90.10
2019-04-10T02:02:09.538Z,90.50
2019-04-10T02:06:15.234Z,90.50
2019-04-10T02:10:20.488Z,90.70
2019-04-10T02:14:25.508Z,90.60
2019-04-10T02:18:30.462Z,90.60
2019-04-10T02:22:35.083Z,90.50
2019-04-10T02:26:39.686Z,90.70
2019-04-10T02:30:45.867Z,90.80
2019-04-10T02:34:50.856Z,90.70
2019-04-10T02:39:09.998Z,90.50
2019-04-10T02:43:05.447Z,90.50
2019-04-10T02:47:10.378Z,90.60
2019-04-10T02:51:15.631Z,90.90
2019-04-10T02:55:22.804Z,90.90
2019-04-10T02:59:29.057Z,90.50
2019-04-10T03:03:34.335Z,90.70
2019-04-10T03:07:40.389Z,91.10
2019-04-10T03:11:47.486Z,90.70
2019-04-10T03:15:53.480Z,91.00
2019-04-10T03:19:58.898Z,91.00
2019-04-10T03:24:04.230Z,90.50
2019-04-10T03:28:09.158Z,90.50
2019-04-10T03:32:36.401Z,90.60
2019-04-10T03:36:40.161Z,90.30
2019-04-10T03:40:45.835Z,89.90
2019-04-10T03:44:51.404Z,89.50
2019-04-10T03:48:57.685Z,89.10
2019-04-10T03:53:02.480Z,89.80
2019-04-10T03:57:08.102Z,90.20
2019-04-10T04:01:12.721Z,89.70
2019-04-10T04:05:18.306Z,89.50
2019-04-10T04:09:23.799Z,90.00
2019-04-10T04:13:28.678Z,90.20
2019-04-10T04:17:33.363Z,91.30
2019-04-10T04:21:38.071Z,90.80
2019-04-10T04:25:42.841Z,89.10
2019-04-10T04:29:47.791Z,88.70
2019-04-10T04:33:53.311Z,88.40
2019-04-10T04:37:58.363Z,87.00
2019-04-10T04:42:03.218Z,87.20
2019-04-10T04:46:07.972Z,87.00
2019-04-10T04:50:12.774Z,84.10
2019-04-10T04:54:17.382Z,83.40
2019-04-10T04:58:22.268Z,84.00
2019-04-10T05:02:28.085Z,84.00
2019-04-10T05:06:32.992Z,84.40
2019-04-10T05:10:37.866Z,85.40
2019-04-10T05:14:42.699Z,84.80
2019-04-10T05:18:47.723Z,83.90
2019-04-10T05:22:54.556Z,85.80
2019-04-10T05:26:59.227Z,83.40
2019-04-10T05:31:04.387Z,84.10
2019-04-10T05:35:10.097Z,81.90
2019-04-10T05:39:15.202Z,81.60
2019-04-10T05:43:19.980Z,81.10
2019-04-10T05:47:24.798Z,81.30
2019-04-10T05:51:29.693Z,80.00
2019-04-10T05:55:36.297Z,78.40
2019-04-10T05:59:41.639Z,78.10
2019-04-10T06:03:47.229Z,78.30
2019-04-10T06:07:52.153Z,77.00
2019-04-10T06:11:57.350Z,73.80
2019-04-10T06:16:03.466Z,73.20
2019-04-10T06:20:09.154Z,75.00
2019-04-10T06:24:14.221Z,74.60
2019-04-10T06:28:19.137Z,75.40
2019-04-10T06:32:23.921Z,74.20
2019-04-10T06:36:29.154Z,71.60
2019-04-10T06:40:35.466Z,69.00
2019-04-10T06:44:41.744Z,70.20
2019-04-10T06:48:46.562Z,68.80
2019-04-10T06:52:51.367Z,68.90
2019-04-10T06:56:56.575Z,70.60
2019-04-10T07:01:01.945Z,68.40
2019-04-10T07:05:10.275Z,67.10
2019-04-10T07:09:21.443Z,66.40
2019-04-10T07:13:28.187Z,66.40
2019-04-10T07:17:38.353Z,68.20
2019-04-10T07:21:40.520Z,70.90
2019-04-10T07:25:46.905Z,70.70
2019-04-10T07:29:57.294Z,72.20
2019-04-10T07:33:59.824Z,69.40
2019-04-10T07:38:05.531Z,65.30
2019-04-10T07:42:10.375Z,61.30
2019-04-10T07:46:15.261Z,60.70
2019-04-10T07:50:20.574Z,59.60
2019-04-10T07:54:26.664Z,59.10
2019-04-10T07:58:31.534Z,60.60
2019-04-10T08:02:36.630Z,59.80
2019-04-10T08:06:42.320Z,59.20
2019-04-10T08:10:47.315Z,58.90
2019-04-10T08:14:52.108Z,57.30
2019-04-10T08:18:56.922Z,58.90
2019-04-10T08:23:01.671Z,59.30
2019-04-10T08:27:07.393Z,57.80
2019-04-10T08:31:12.762Z,58.40
2019-04-10T08:35:17.580Z,58.20
2019-04-10T08:39:35.262Z,57.80
2019-04-10T08:43:29.560Z,54.50
2019-04-10T08:47:35.429Z,51.30
2019-04-10T08:51:41.538Z,55.40
2019-04-10T08:55:46.502Z,54.10
2019-04-10T08:59:52.074Z,51.10
2019-04-10T09:03:57.405Z,47.00
2019-04-10T09:08:04.434Z,51.50
2019-04-10T09:12:09.443Z,46.20
2019-04-10T09:16:14.270Z,40.40
2019-04-10T09:20:19.401Z,45.40
2019-04-10T09:24:24.383Z,45.40
2019-04-10T09:28:30.615Z,44.40
2019-04-10T09:32:35.412Z,43.90
2019-04-10T09:36:41.649Z,46.30
2019-04-10T09:40:46.939Z,40.50
2019-04-10T09:44:52.796Z,43.30
2019-04-10T09:48:58.383Z,40.60
2019-04-10T09:53:04.200Z,39.30
2019-04-10T09:57:11.095Z,37.50
2019-04-10T10:01:16.183Z,41.90
2019-04-10T10:05:22.407Z,44.10
2019-04-10T10:09:29.172Z,43.90
2019-04-10T10:13:33.949Z,38.20
2019-04-10T10:17:39.207Z,40.30
2019-04-10T10:21:44.904Z,39.20
2019-04-10T10:25:49.858Z,39.90
2019-04-10T10:29:55.978Z,42.70
2019-04-10T10:34:02.063Z,51.80
2019-04-10T10:38:07.788Z,37.50
2019-04-10T10:42:14.357Z,38.50
2019-04-10T10:46:19.809Z,40.10
2019-04-10T10:50:25.612Z,44.00
2019-04-10T10:54:30.676Z,42.90
2019-04-10T10:58:35.718Z,44.20
2019-04-10T11:02:41.496Z,43.60
2019-04-10T11:06:53.983Z,38.20
2019-04-10T11:10:57.267Z,44.00
2019-04-10T11:15:03.676Z,44.80
2019-04-10T11:19:10.759Z,45.90
2019-04-10T11:23:16.193Z,41.00
2019-04-10T11:27:21.377Z,38.10
2019-04-10T11:31:26.349Z,40.40
2019-04-10T11:35:31.659Z,42.90
2019-04-10T11:39:40.312Z,42.10
2019-04-10T11:43:44.611Z,39.60
2019-04-10T11:47:51.260Z,36.20
2019-04-10T11:52:01.283Z,37.20
2019-04-10T11:56:07.966Z,33.70
2019-04-10T12:00:17.502Z,34.90
2019-04-10T12:04:20.227Z,32.80
2019-04-10T12:08:50.419Z,30.40
2019-04-10T12:12:33.384Z,32.50
2019-04-10T12:16:38.991Z,35.20
2019-04-10T12:20:45.134Z,37.50
2019-04-10T12:24:51.305Z,30.00
2019-04-10T12:28:56.468Z,32.90
2019-04-10T12:33:01.182Z,35.20
2019-04-10T12:37:06.940Z,36.90
2019-04-10T12:41:11.967Z,38.50
2019-04-10T12:45:18.188Z,37.10
2019-04-10T12:49:23.434Z,38.30
2019-04-10T12:53:29.644Z,38.70
2019-04-10T12:57:34.909Z,41.60
2019-04-10T13:01:40.790Z,41.30
2019-04-10T13:05:45.782Z,39.10
2019-04-10T13:09:50.737Z,35.00
2019-04-10T13:13:55.642Z,34.30
2019-04-10T13:18:00.380Z,30.60
2019-04-10T13:22:05.525Z,32.30
2019-04-10T13:26:10.920Z,37.10
2019-04-10T13:30:18.717Z,39.30
2019-04-10T13:34:25.143Z,40.20
2019-04-10T13:38:34.039Z,39.30
2019-04-10T13:42:37.459Z,36.80
2019-04-10T13:46:43.422Z,37.00
2019-04-10T13:50:48.764Z,37.20
2019-04-10T13:54:54.555Z,39.30
2019-04-10T13:59:00.347Z,37.40
2019-04-10T14:03:06.001Z,38.90
2019-04-10T14:07:11.553Z,40.30
2019-04-10T14:11:17.399Z,41.00
2019-04-10T14:15:25.734Z,41.90
2019-04-10T14:19:31.893Z,41.00
2019-04-10T14:23:37.458Z,38.60
2019-04-10T14:27:43.051Z,37.30
2019-04-10T14:31:53.137Z,40.00
2019-04-10T14:35:58.055Z,41.70
2019-04-10T14:40:02.742Z,42.60
2019-04-10T14:44:08.293Z,44.70
2019-04-10T14:48:14.158Z,42.90
2019-04-10T14:52:19.119Z,43.90
2019-04-10T14:56:24.341Z,42.40
2019-04-10T15:00:49.647Z,42.00
2019-04-10T15:04:55.427Z,41.30
2019-04-10T15:09:00.276Z,40.20
2019-04-10T15:13:10.222Z,38.40
2019-04-10T15:17:12.613Z,43.00
2019-04-10T15:21:17.406Z,43.60
2019-04-10T15:25:23.005Z,45.70
2019-04-10T15:29:28.089Z,45.90
2019-04-10T15:33:52.182Z,45.40
2019-04-10T15:37:57.775Z,45.40
2019-04-10T15:42:03.628Z,43.60
2019-04-10T15:46:08.775Z,44.80
2019-04-10T15:50:13.900Z,44.10
2019-04-10T15:54:19.375Z,46.10
2019-04-10T15:58:23.976Z,42.10
2019-04-10T16:02:28.638Z,39.90
2019-04-10T16:06:33.468Z,38.70
2019-04-10T16:10:53.701Z,40.30
2019-04-10T16:14:58.400Z,41.50
2019-04-10T16:19:15.341Z,40.40
2019-04-10T16:23:38.201Z,39.10
2019-04-10T16:27:43.346Z,39.70
2019-04-10T16:31:48.382Z,40.90
2019-04-10T16:35:53.063Z,41.40
2019-04-10T16:40:03.307Z,44.20
2019-04-10T16:44:06.760Z,43.00
2019-04-10T16:48:11.534Z,42.80
2019-04-10T16:52:16.814Z,43.10
2019-04-10T16:56:21.731Z,55.90
2019-04-10T17:00:27.051Z,45.10
2019-04-10T17:04:31.950Z,46.30
2019-04-10T17:08:37.867Z,46.70
2019-04-10T17:12:44.185Z,46.80
2019-04-10T17:16:50.339Z,46.70
2019-04-10T17:20:55.254Z,47.40
2019-04-10T17:25:00.114Z,46.80
2019-04-10T17:29:05.084Z,46.70
2019-04-10T17:33:10.991Z,45.80
2019-04-10T17:37:15.959Z,46.50
2019-04-10T17:41:21.918Z,46.30
2019-04-10T17:45:27.886Z,47.80
2019-04-10T17:49:34.103Z,47.40
2019-04-10T17:53:39.958Z,47.00
2019-04-10T17:57:46.406Z,46.40
2019-04-10T18:01:51.814Z,46.40
2019-04-10T18:05:57.188Z,46.80
2019-04-10T18:10:02.491Z,47.10
2019-04-10T18:14:09.193Z,47.30
2019-04-10T18:18:14.020Z,48.40
2019-04-10T18:22:20.654Z,48.80
2019-04-10T18:26:25.742Z,48.70
2019-04-10T18:30:33.000Z,49.50
2019-04-10T18:34:36.938Z,49.80
2019-04-10T18:38:41.805Z,49.50
2019-04-10T18:42:47.403Z,51.30
2019-04-10T18:46:52.266Z,51.20
2019-04-10T18:50:57.299Z,51.70
2019-04-10T18:55:02.132Z,51.20
2019-04-10T18:59:13.342Z,51.20
2019-04-10T19:03:27.667Z,51.50
2019-04-10T19:07:32.456Z,51.20
2019-04-10T19:11:38.305Z,52.80
2019-04-10T19:15:44.690Z,52.80
2019-04-10T19:19:50.794Z,53.10
2019-04-10T19:23:55.832Z,55.30
2019-04-10T19:28:00.546Z,54.60
2019-04-10T19:32:07.964Z,55.40
2019-04-10T19:36:12.794Z,55.80
2019-04-10T19:40:17.460Z,56.50
2019-04-10T19:44:23.204Z,56.40
2019-04-10T19:48:31.007Z,56.60
2019-04-10T19:52:36.200Z,56.70
2019-04-10T19:56:40.992Z,57.30
2019-04-10T20:00:46.503Z,56.60
2019-04-10T20:04:51.234Z,56.90
2019-04-10T20:08:56.341Z,58.00
2019-04-10T20:13:01.405Z,58.60
2019-04-10T20:17:06.595Z,60.10
2019-04-10T20:21:12.064Z,60.40
2019-04-10T20:25:16.823Z,63.00
2019-04-10T20:29:21.445Z,60.30
2019-04-10T20:33:27.089Z,59.80
2019-04-10T20:37:32.274Z,59.40
2019-04-10T20:41:47.597Z,59.90
2019-04-10T20:45:43.642Z,60.10
2019-04-10T20:49:48.274Z,59.50
2019-04-10T20:53:53.427Z,60.40
2019-04-10T20:57:58.036Z,59.40
2019-04-10T21:02:04.101Z,59.20
2019-04-10T21:06:09.033Z,60.70
2019-04-10T21:10:15.023Z,60.90
2019-04-10T21:14:21.101Z,61.40
2019-04-10T21:18:27.126Z,61.30
2019-04-10T21:22:32.770Z,64.90
2019-04-10T21:26:38.818Z,62.50
2019-04-10T21:30:54.954Z,60.90
2019-04-10T21:34:59.783Z,62.80
2019-04-10T21:39:07.425Z,63.10
2019-04-10T21:43:12.301Z,64.20
2019-04-10T21:47:17.272Z,63.90
2019-04-10T21:51:23.181Z,65.20
2019-04-10T21:55:29.036Z,63.10
2019-04-10T21:59:35.314Z,63.00
2019-04-10T22:03:41.355Z,64.60
2019-04-10T22:07:59.057Z,64.20
2019-04-10T22:12:21.986Z,63.90
2019-04-10T22:16:17.837Z,62.90
2019-04-10T22:20:23.556Z,63.20
2019-04-10T22:24:29.764Z,63.30
2019-04-10T22:28:35.063Z,64.60
2019-04-10T22:32:40.689Z,65.50
2019-04-10T22:36:47.075Z,63.20
2019-04-10T22:40:52.026Z,64.30
2019-04-10T22:44:56.836Z,65.30
2019-04-10T22:49:02.009Z,65.20
2019-04-10T22:53:06.976Z,66.20
2019-04-10T22:57:12.515Z,65.30
2019-04-10T23:01:17.185Z,66.00
2019-04-10T23:05:22.648Z,66.50
2019-04-10T23:09:28.482Z,69.30
2019-04-10T23:13:34.138Z,68.60
2019-04-10T23:17:39.068Z,68.10
2019-04-10T23:21:44.876Z,69.60
2019-04-10T23:25:50.887Z,68.60
2019-04-10T23:29:56.891Z,68.50
2019-04-10T23:34:01.655Z,71.50
2019-04-10T23:38:07.017Z,71.70
2019-04-10T23:42:12.757Z,73.00
2019-04-10T23:46:18.085Z,73.80
2019-04-10T23:50:23.902Z,73.80
2019-04-10T23:54:29.068Z,73.70
2019-04-10T23:58:34.005Z,74.40
